createdAt,value
2023-03-03T00:01:43.632Z,27.10
2023-03-03T00:04:09.909Z,27.07
2023-03-03T00:06:36.173Z,28.27
2023-03-03T00:09:02.495Z,28.07
2023-03-03T00:11:28.709Z,26.27
2023-03-03T00:13:55.860Z,27.20
2023-03-03T00:16:24.382Z,29.03
2023-03-03T00:18:51.127Z,25.77
2023-03-03T00:21:26.070Z,26.03
2023-03-03T00:23:52.810Z,23.83
2023-03-03T00:26:23.735Z,24.20
2023-03-03T00:28:50.850Z,25.57
2023-03-03T00:31:18.816Z,22.77
2023-03-03T00:33:48.200Z,22.50
2023-03-03T00:36:14.439Z,24.50
2023-03-03T00:38:40.802Z,24.17
2023-03-03T00:41:16.238Z,23.17
2023-03-03T00:43:42.766Z,25.37
2023-03-03T00:46:10.092Z,24.33
2023-03-03T00:48:36.311Z,23.73
2023-03-03T00:51:10.318Z,26.70
2023-03-03T00:53:36.567Z,24.70
2023-03-03T00:56:02.795Z,23.50
2023-03-03T00:58:29.625Z,25.03
2023-03-03T01:00:58.839Z,25.57
2023-03-03T01:03:25.808Z,21.70
2023-03-03T01:05:52.564Z,25.07
2023-03-03T01:08:19.556Z,22.60
2023-03-03T01:10:48.567Z,21.00
2023-03-03T01:13:14.795Z,24.13
2023-03-03T01:15:42.330Z,24.20
2023-03-03T01:18:09.487Z,23.57
2023-03-03T01:20:35.763Z,22.73
2023-03-03T01:23:02.189Z,24.00
2023-03-03T01:25:28.492Z,26.37
2023-03-03T01:27:54.751Z,25.33
2023-03-03T01:30:21.042Z,25.13
2023-03-03T01:32:47.406Z,27.13
2023-03-03T01:35:13.630Z,24.23
2023-03-03T01:37:39.950Z,29.50
2023-03-03T01:40:07.272Z,23.63
2023-03-03T01:42:33.531Z,27.77
2023-03-03T01:45:18.868Z,24.17
2023-03-03T01:47:46.790Z,23.60
2023-03-03T01:50:15.326Z,24.90
2023-03-03T01:52:43.905Z,23.30
2023-03-03T01:55:21.585Z,25.90
2023-03-03T01:57:50.781Z,27.90
2023-03-03T02:00:17.551Z,26.43
2023-03-03T02:02:43.917Z,28.97
2023-03-03T02:05:10.741Z,27.87
2023-03-03T02:07:37.385Z,31.47
2023-03-03T02:10:11.572Z,27.43
2023-03-03T02:12:40.598Z,29.97
2023-03-03T02:15:17.088Z,33.60
2023-03-03T02:17:43.620Z,27.30
2023-03-03T02:20:10.341Z,27.77
2023-03-03T02:22:44.227Z,28.60
2023-03-03T02:25:13.449Z,27.30
2023-03-03T02:27:39.694Z,26.87
2023-03-03T02:30:11.093Z,27.63
2023-03-03T02:32:37.458Z,30.90
2023-03-03T02:35:23.717Z,31.10
2023-03-03T02:37:50.456Z,29.70
2023-03-03T02:40:19.253Z,32.40
2023-03-03T02:42:45.538Z,29.73
2023-03-03T02:45:11.812Z,31.20
2023-03-03T02:47:38.053Z,31.47
2023-03-03T02:50:04.466Z,31.83
2023-03-03T02:52:30.698Z,32.30
2023-03-03T02:54:56.929Z,31.40
2023-03-03T02:57:23.212Z,31.80
2023-03-03T02:59:49.442Z,33.43
2023-03-03T03:02:15.789Z,28.83
2023-03-03T03:04:42.166Z,31.33
2023-03-03T03:07:08.453Z,34.27
2023-03-03T03:09:34.745Z,33.57
2023-03-03T03:12:02.486Z,30.43
2023-03-03T03:14:28.749Z,35.83
2023-03-03T03:16:55.026Z,30.97
2023-03-03T03:19:21.502Z,32.30
2023-03-03T03:21:47.733Z,34.73
2023-03-03T03:24:13.995Z,30.60
2023-03-03T03:26:40.247Z,38.90
2023-03-03T03:29:07.675Z,35.73
2023-03-03T03:31:33.961Z,35.87
2023-03-03T03:34:00.597Z,36.07
2023-03-03T03:36:28.260Z,33.83
2023-03-03T03:38:54.645Z,36.20
2023-03-03T03:41:20.941Z,35.20
2023-03-03T03:43:47.205Z,35.90
2023-03-03T03:46:13.486Z,35.03
2023-03-03T03:48:40.771Z,30.13
2023-03-03T03:51:07.008Z,32.03
2023-03-03T03:53:33.254Z,31.07
2023-03-03T03:55:59.568Z,32.63
2023-03-03T03:58:25.957Z,35.43
2023-03-03T04:00:52.193Z,33.50
2023-03-03T04:03:18.553Z,37.57
2023-03-03T04:05:44.852Z,35.67
2023-03-03T04:08:11.533Z,34.00
2023-03-03T04:10:37.945Z,36.27
2023-03-03T04:13:04.581Z,35.10
2023-03-03T04:15:30.926Z,33.90
2023-03-03T04:17:57.247Z,34.83
2023-03-03T04:20:23.634Z,38.03
2023-03-03T04:22:50.129Z,35.60
2023-03-03T04:25:17.097Z,35.37
2023-03-03T04:27:43.460Z,31.47
2023-03-03T04:30:10.378Z,32.30
2023-03-03T04:32:36.642Z,28.57
2023-03-03T04:35:08.203Z,26.53
2023-03-03T04:37:35.183Z,32.20
2023-03-03T04:40:01.466Z,27.23
2023-03-03T04:42:28.281Z,32.20
2023-03-03T04:44:54.607Z,29.80
2023-03-03T04:47:20.836Z,31.10
2023-03-03T04:49:47.135Z,29.03
2023-03-03T04:52:13.369Z,29.27
2023-03-03T04:54:39.645Z,28.27
2023-03-03T04:57:05.966Z,32.13
2023-03-03T04:59:32.303Z,32.33
2023-03-03T05:01:58.525Z,26.33
2023-03-03T05:04:24.890Z,28.47
2023-03-03T05:06:51.638Z,26.77
2023-03-03T05:09:17.952Z,26.63
2023-03-03T05:11:44.241Z,25.03
2023-03-03T05:14:10.463Z,26.83
2023-03-03T05:16:36.691Z,26.07
2023-03-03T05:19:02.947Z,27.60
2023-03-03T05:21:29.180Z,28.13
2023-03-03T05:23:55.417Z,29.70
2023-03-03T05:26:22.235Z,29.87
2023-03-03T05:28:48.495Z,25.63
2023-03-03T05:31:14.778Z,29.03
2023-03-03T05:33:41.021Z,27.97
2023-03-03T05:36:07.547Z,27.53
2023-03-03T05:38:33.941Z,28.90
2023-03-03T05:41:00.166Z,23.90
2023-03-03T05:43:26.476Z,28.20
2023-03-03T05:45:56.671Z,26.63
2023-03-03T05:48:22.983Z,25.40
2023-03-03T05:50:49.240Z,26.23
2023-03-03T05:53:15.475Z,24.57
2023-03-03T05:55:41.716Z,26.80
2023-03-03T05:58:07.953Z,23.43
2023-03-03T06:00:34.164Z,23.87
2023-03-03T06:03:00.519Z,25.70
2023-03-03T06:05:27.062Z,26.83
2023-03-03T06:07:53.406Z,26.87
2023-03-03T06:10:19.737Z,25.80
2023-03-03T06:12:46.027Z,26.20
2023-03-03T06:15:12.327Z,25.13
2023-03-03T06:17:38.754Z,22.07
2023-03-03T06:20:05.596Z,23.80
2023-03-03T06:22:31.818Z,23.53
2023-03-03T06:24:58.056Z,23.40
2023-03-03T06:27:24.286Z,22.17
2023-03-03T06:29:50.550Z,20.83
2023-03-03T06:32:17.009Z,21.47
2023-03-03T06:34:43.294Z,21.33
2023-03-03T06:37:09.535Z,23.37
2023-03-03T06:39:35.842Z,23.23
2023-03-03T06:42:02.070Z,23.77
2023-03-03T06:44:28.932Z,28.27
2023-03-03T06:46:57.262Z,22.13
2023-03-03T06:49:23.515Z,25.83
2023-03-03T06:51:50.558Z,28.30
2023-03-03T06:54:17.887Z,26.20
2023-03-03T06:56:45.064Z,31.60
2023-03-03T06:59:12.835Z,32.97
2023-03-03T07:01:39.604Z,28.80
2023-03-03T07:04:13.759Z,29.47
2023-03-03T07:06:39.970Z,32.50
2023-03-03T07:09:14.736Z,30.30
2023-03-03T07:11:41.123Z,33.00
2023-03-03T07:14:14.659Z,28.53
2023-03-03T07:16:40.955Z,30.53
2023-03-03T07:19:14.619Z,28.20
2023-03-03T07:21:41.328Z,28.37
2023-03-03T07:24:34.154Z,28.37
2023-03-03T07:27:00.703Z,29.07
2023-03-03T07:29:28.155Z,28.77
2023-03-03T07:31:59.248Z,26.73
2023-03-03T07:34:31.036Z,26.53
2023-03-03T07:37:04.670Z,26.87
2023-03-03T07:39:40.517Z,25.90
2023-03-03T07:42:14.832Z,23.33
2023-03-03T07:44:41.281Z,23.80
2023-03-03T07:47:14.287Z,21.70
2023-03-03T07:49:40.737Z,21.77
2023-03-03T07:52:23.372Z,22.13
2023-03-03T07:54:49.607Z,19.93
2023-03-03T07:57:21.768Z,23.63
2023-03-03T07:59:49.857Z,19.33
2023-03-03T08:02:30.913Z,21.63
2023-03-03T08:04:57.202Z,19.67
2023-03-03T08:07:23.710Z,21.77
2023-03-03T08:09:52.024Z,19.10
2023-03-03T08:12:24.148Z,22.17
2023-03-03T08:14:51.579Z,17.57
2023-03-03T08:17:20.874Z,23.07
2023-03-03T08:19:48.057Z,20.80
2023-03-03T08:22:40.455Z,21.43
2023-03-03T08:25:06.846Z,18.27
2023-03-03T08:27:33.316Z,21.80
2023-03-03T08:29:59.574Z,21.23
2023-03-03T08:32:25.871Z,21.10
2023-03-03T08:34:52.360Z,17.60
2023-03-03T08:37:18.719Z,18.03
2023-03-03T08:39:45.391Z,16.83
2023-03-03T08:42:11.670Z,15.23
2023-03-03T08:44:37.933Z,14.50
2023-03-03T08:47:04.244Z,16.70
2023-03-03T08:49:30.520Z,15.13
2023-03-03T08:51:57.064Z,14.33
2023-03-03T08:54:23.295Z,13.23
2023-03-03T08:56:50.037Z,13.97
2023-03-03T08:59:16.277Z,12.37
2023-03-03T09:01:44.642Z,13.50
2023-03-03T09:04:12.674Z,12.60
2023-03-03T09:06:39.255Z,12.17
2023-03-03T09:09:05.590Z,14.53
2023-03-03T09:11:32.570Z,14.83
2023-03-03T09:14:11.493Z,14.57
2023-03-03T09:16:39.195Z,13.93
2023-03-03T09:19:24.380Z,15.57
2023-03-03T09:21:51.632Z,12.70
2023-03-03T09:24:28.355Z,13.70
2023-03-03T09:26:55.054Z,13.53
2023-03-03T09:29:27.462Z,12.17
2023-03-03T09:31:55.530Z,13.30
2023-03-03T09:34:41.280Z,13.97
2023-03-03T09:37:26.550Z,15.07
2023-03-03T09:39:54.262Z,14.17
2023-03-03T09:42:38.919Z,16.37
2023-03-03T09:45:08.027Z,15.80
2023-03-03T09:47:47.565Z,17.97
2023-03-03T09:50:33.013Z,14.80
2023-03-03T09:52:59.231Z,17.07
2023-03-03T09:55:25.611Z,14.30
2023-03-03T09:58:04.554Z,14.50
2023-03-03T10:00:40.754Z,14.37
2023-03-03T10:03:19.368Z,15.47
2023-03-03T10:05:56.819Z,14.07
2023-03-03T10:08:36.106Z,14.10
2023-03-03T10:11:08.408Z,15.33
2023-03-03T10:13:41.068Z,14.63
2023-03-03T10:16:22.408Z,15.17
2023-03-03T10:18:56.330Z,15.43
2023-03-03T10:21:25.686Z,16.83
2023-03-03T10:23:56.875Z,16.43
2023-03-03T10:26:45.253Z,14.00
2023-03-03T10:29:29.205Z,12.63
2023-03-03T10:32:16.269Z,16.80
2023-03-03T10:35:15.343Z,14.33
2023-03-03T10:37:48.723Z,15.17
2023-03-03T10:40:33.559Z,17.70
2023-03-03T10:43:31.729Z,17.03
2023-03-03T10:46:01.832Z,17.70
2023-03-03T10:48:39.881Z,15.43
2023-03-03T10:51:14.742Z,15.00
2023-03-03T10:54:10.105Z,19.50
2023-03-03T10:56:52.127Z,18.33
2023-03-03T10:59:38.378Z,19.20
2023-03-03T11:02:13.364Z,22.47
2023-03-03T11:04:39.663Z,16.27
2023-03-03T11:07:13.369Z,22.07
2023-03-03T11:09:46.602Z,22.00
2023-03-03T11:12:25.601Z,22.40
2023-03-03T11:15:02.250Z,23.87
2023-03-03T11:17:47.474Z,23.87
2023-03-03T11:20:27.569Z,23.83
2023-03-03T11:23:00.122Z,20.23
2023-03-03T11:25:33.321Z,22.70
2023-03-03T11:28:10.430Z,22.13
2023-03-03T11:30:36.791Z,25.90
2023-03-03T11:33:15.323Z,25.17
2023-03-03T11:35:51.336Z,25.67
2023-03-03T11:38:32.951Z,22.07
2023-03-03T11:41:01.539Z,22.10
2023-03-03T11:43:37.767Z,21.03
2023-03-03T11:46:13.044Z,22.30
2023-03-03T11:48:46.082Z,23.27
2023-03-03T11:51:19.685Z,25.77
2023-03-03T11:54:00.389Z,22.47
2023-03-03T11:56:45.830Z,24.20
2023-03-03T11:59:21.351Z,23.10
2023-03-03T12:01:57.903Z,25.20
2023-03-03T12:04:30.861Z,23.33
2023-03-03T12:07:19.944Z,23.40
2023-03-03T12:09:52.135Z,26.97
2023-03-03T12:12:34.790Z,23.47
2023-03-03T12:15:19.125Z,23.27
2023-03-03T12:17:52.640Z,23.10
2023-03-03T12:20:25.672Z,23.80
2023-03-03T12:23:12.043Z,24.73
2023-03-03T12:25:46.221Z,24.73
2023-03-03T12:28:23.971Z,26.73
2023-03-03T12:31:08.630Z,21.73
2023-03-03T12:33:54.053Z,24.23
2023-03-03T12:36:39.343Z,22.93
2023-03-03T12:39:12.011Z,24.37
2023-03-03T12:41:47.829Z,25.23
2023-03-03T12:44:14.143Z,25.87
2023-03-03T12:46:44.465Z,23.53
2023-03-03T12:49:11.118Z,24.37
2023-03-03T12:51:43.565Z,26.67
2023-03-03T12:54:25.198Z,24.17
2023-03-03T12:57:04.521Z,24.70
2023-03-03T12:59:36.769Z,25.40
2023-03-03T13:02:22.264Z,26.00
2023-03-03T13:04:55.434Z,24.10
2023-03-03T13:07:41.905Z,21.87
2023-03-03T13:10:13.657Z,25.30
2023-03-03T13:12:45.473Z,30.17
2023-03-03T13:15:12.635Z,23.87
2023-03-03T13:17:52.327Z,23.80
2023-03-03T13:20:25.129Z,26.23
2023-03-03T13:22:57.512Z,27.43
2023-03-03T13:25:23.944Z,24.23
2023-03-03T13:27:53.406Z,24.03
2023-03-03T13:30:19.742Z,23.60
2023-03-03T13:32:59.576Z,25.20
2023-03-03T13:35:35.800Z,30.53
2023-03-03T13:38:02.691Z,24.43
2023-03-03T13:40:38.518Z,28.63
2023-03-03T13:43:09.921Z,28.47
2023-03-03T13:45:57.631Z,27.37
2023-03-03T13:48:29.947Z,24.40
2023-03-03T13:50:58.026Z,26.07
2023-03-03T13:53:31.478Z,26.47
2023-03-03T13:56:10.107Z,23.33
2023-03-03T13:58:46.821Z,27.97
2023-03-03T14:01:19.206Z,26.60
2023-03-03T14:03:48.387Z,25.87
2023-03-03T14:06:14.708Z,25.90
2023-03-03T14:08:46.704Z,24.00
2023-03-03T14:11:19.298Z,20.93
2023-03-03T14:13:52.599Z,22.97
2023-03-03T14:16:30.712Z,23.00
2023-03-03T14:18:58.039Z,20.67
2023-03-03T14:21:29.538Z,20.33
2023-03-03T14:23:59.169Z,20.20
2023-03-03T14:26:25.763Z,20.10
2023-03-03T14:29:03.323Z,20.10
2023-03-03T14:31:32.170Z,19.43
2023-03-03T14:34:14.217Z,20.30
2023-03-03T14:36:41.785Z,22.60
2023-03-03T14:39:26.745Z,22.60
2023-03-03T14:41:53.643Z,25.20
2023-03-03T14:44:30.345Z,20.43
2023-03-03T14:47:15.324Z,20.83
2023-03-03T14:49:41.793Z,22.97
2023-03-03T14:52:14.241Z,23.07
2023-03-03T14:54:48.448Z,20.53
2023-03-03T14:57:31.201Z,20.67
2023-03-03T14:59:59.140Z,19.67
2023-03-03T15:02:30.247Z,17.73
2023-03-03T15:05:13.140Z,21.07
2023-03-03T15:07:42.953Z,18.43
2023-03-03T15:10:09.884Z,21.77
2023-03-03T15:12:37.207Z,19.97
2023-03-03T15:15:07.004Z,21.00
2023-03-03T15:17:35.637Z,20.20
2023-03-03T15:20:07.983Z,19.33
2023-03-03T15:22:41.946Z,19.77
2023-03-03T15:25:20.951Z,21.87
2023-03-03T15:28:06.196Z,22.20
2023-03-03T15:30:44.571Z,20.80
2023-03-03T15:33:18.402Z,24.30
2023-03-03T15:35:52.625Z,21.87
2023-03-03T15:38:39.380Z,23.07
2023-03-03T15:41:24.428Z,24.53
2023-03-03T15:43:59.324Z,22.37
2023-03-03T15:46:33.925Z,21.20
2023-03-03T15:49:13.239Z,23.30
2023-03-03T15:52:03.564Z,22.40
2023-03-03T15:54:40.003Z,23.20
2023-03-03T15:57:16.429Z,23.20
2023-03-03T15:59:45.020Z,24.87
2023-03-03T16:02:22.040Z,24.27
2023-03-03T16:05:08.526Z,22.67
2023-03-03T16:07:45.239Z,20.43
2023-03-03T16:10:18.661Z,24.83
2023-03-03T16:12:53.816Z,22.70
2023-03-03T16:15:37.292Z,22.00
2023-03-03T16:18:07.217Z,23.93
2023-03-03T16:20:37.828Z,24.90
2023-03-03T16:23:16.344Z,23.23
2023-03-03T16:25:58.218Z,20.97
2023-03-03T16:28:35.460Z,21.33
2023-03-03T16:31:01.661Z,22.47
2023-03-03T16:33:57.069Z,26.03
2023-03-03T16:36:29.437Z,22.67
2023-03-03T16:39:03.224Z,22.03
2023-03-03T16:41:39.689Z,21.17
2023-03-03T16:44:28.058Z,21.17
2023-03-03T16:46:59.176Z,21.97
2023-03-03T16:49:30.935Z,21.87
2023-03-03T16:52:07.556Z,21.63
2023-03-03T16:54:37.139Z,25.63
2023-03-03T16:57:27.732Z,24.37
2023-03-03T17:00:12.005Z,23.23
2023-03-03T17:02:38.226Z,21.97
2023-03-03T17:05:04.975Z,24.07
2023-03-03T17:07:39.239Z,20.93
2023-03-03T17:10:11.840Z,23.23
2023-03-03T17:12:56.636Z,21.10
2023-03-03T17:15:41.738Z,23.23
2023-03-03T17:18:13.248Z,21.03
2023-03-03T17:20:46.045Z,22.50
2023-03-03T17:23:34.911Z,21.90
2023-03-03T17:26:11.382Z,26.60
2023-03-03T17:28:56.529Z,24.70
2023-03-03T17:31:47.441Z,24.90
2023-03-03T17:34:19.052Z,23.13
2023-03-03T17:36:52.629Z,23.20
2023-03-03T17:39:37.623Z,23.27
2023-03-03T17:42:09.941Z,25.17
2023-03-03T17:44:50.315Z,21.73
2023-03-03T17:47:23.981Z,23.90
2023-03-03T17:50:02.229Z,22.17
2023-03-03T17:52:47.068Z,22.03
2023-03-03T17:55:16.404Z,21.87
2023-03-03T17:57:52.895Z,22.13
2023-03-03T18:00:25.250Z,24.63
2023-03-03T18:03:10.280Z,23.17
2023-03-03T18:06:11.995Z,23.27
2023-03-03T18:08:46.650Z,22.13
2023-03-03T18:11:32.930Z,22.27
2023-03-03T18:14:07.020Z,23.47
2023-03-03T18:16:55.644Z,23.47
2023-03-03T18:19:38.941Z,23.10
2023-03-03T18:22:05.157Z,23.33
2023-03-03T18:24:38.572Z,23.10
2023-03-03T18:27:34.053Z,24.20
2023-03-03T18:30:09.395Z,22.70
2023-03-03T18:33:01.825Z,20.03
2023-03-03T18:35:33.392Z,22.80
2023-03-03T18:38:20.748Z,23.80
2023-03-03T18:40:51.668Z,24.67
2023-03-03T18:43:36.749Z,22.40
2023-03-03T18:46:03.104Z,22.20
2023-03-03T18:48:45.584Z,24.50
2023-03-03T18:51:11.840Z,23.83
2023-03-03T18:53:45.237Z,21.80
2023-03-03T18:56:11.536Z,19.80
2023-03-03T18:58:40.707Z,23.40
2023-03-03T19:01:33.463Z,26.90
2023-03-03T19:04:18.577Z,24.30
2023-03-03T19:06:47.923Z,23.77
2023-03-03T19:09:34.513Z,22.00
2023-03-03T19:12:00.753Z,26.87
2023-03-03T19:14:28.877Z,24.67
2023-03-03T19:16:55.992Z,23.73
2023-03-03T19:19:24.314Z,24.10
2023-03-03T19:21:52.256Z,23.87
2023-03-03T19:24:26.703Z,22.73
2023-03-03T19:27:05.363Z,25.60
2023-03-03T19:29:46.562Z,21.40
2023-03-03T19:32:15.800Z,25.33
2023-03-03T19:34:47.120Z,22.60
2023-03-03T19:37:28.429Z,24.63
2023-03-03T19:39:57.797Z,24.57
2023-03-03T19:42:48.416Z,23.43
2023-03-03T19:45:33.240Z,24.60
2023-03-03T19:48:14.741Z,26.77
2023-03-03T19:50:59.771Z,27.07
2023-03-03T19:53:35.237Z,25.97
2023-03-03T19:56:14.223Z,24.33
2023-03-03T19:58:49.483Z,23.90
2023-03-03T20:01:33.265Z,23.37
2023-03-03T20:03:59.713Z,24.73
2023-03-03T20:06:43.710Z,23.73
2023-03-03T20:09:18.276Z,26.10
2023-03-03T20:11:53.614Z,22.07
2023-03-03T20:14:38.663Z,24.77
2023-03-03T20:17:11.113Z,23.73
2023-03-03T20:19:46.837Z,24.47
2023-03-03T20:22:15.809Z,24.33
2023-03-03T20:24:46.078Z,26.87
2023-03-03T20:27:18.153Z,24.17
2023-03-03T20:29:57.858Z,24.07
2023-03-03T20:32:40.467Z,25.73
2023-03-03T20:35:27.287Z,23.40
2023-03-03T20:38:23.234Z,25.83
2023-03-03T20:40:54.867Z,23.20
2023-03-03T20:43:24.164Z,24.93
2023-03-03T20:45:57.099Z,25.70
2023-03-03T20:48:32.682Z,23.47
2023-03-03T20:51:16.560Z,23.57
2023-03-03T20:53:51.240Z,22.93
2023-03-03T20:56:36.321Z,23.37
2023-03-03T20:59:21.353Z,21.10
2023-03-03T21:01:53.238Z,26.00
2023-03-03T21:04:24.502Z,23.23
2023-03-03T21:06:50.847Z,21.67
2023-03-03T21:09:30.723Z,22.73
2023-03-03T21:11:57.769Z,24.93
2023-03-03T21:14:25.549Z,24.63
2023-03-03T21:16:58.917Z,23.47
2023-03-03T21:19:26.991Z,23.47
2023-03-03T21:21:53.970Z,22.77
2023-03-03T21:24:20.606Z,22.90
2023-03-03T21:26:48.653Z,25.50
2023-03-03T21:29:24.170Z,23.20
2023-03-03T21:31:54.949Z,21.90
2023-03-03T21:34:25.849Z,24.87
2023-03-03T21:36:52.509Z,23.10
2023-03-03T21:39:19.545Z,20.50
2023-03-03T21:41:53.078Z,23.73
2023-03-03T21:44:29.994Z,22.07
2023-03-03T21:46:58.572Z,21.53
2023-03-03T21:49:25.119Z,20.70
2023-03-03T21:51:51.390Z,19.43
2023-03-03T21:54:17.613Z,22.53
2023-03-03T21:56:43.884Z,22.93
2023-03-03T21:59:10.350Z,20.60
2023-03-03T22:01:38.272Z,19.63
2023-03-03T22:04:05.717Z,24.57
2023-03-03T22:06:32.028Z,23.97
2023-03-03T22:08:58.489Z,19.97
2023-03-03T22:11:24.733Z,21.73
2023-03-03T22:13:50.970Z,23.80
2023-03-03T22:16:17.360Z,25.60
2023-03-03T22:18:43.618Z,25.13
2023-03-03T22:21:09.906Z,27.77
2023-03-03T22:23:36.184Z,28.40
2023-03-03T22:26:02.485Z,27.90
2023-03-03T22:28:31.747Z,24.83
2023-03-03T22:30:58.084Z,28.53
2023-03-03T22:33:24.405Z,27.53
2023-03-03T22:35:50.736Z,30.77
2023-03-03T22:38:17.076Z,31.20
2023-03-03T22:40:43.552Z,34.23
2023-03-03T22:43:14.495Z,34.73
2023-03-03T22:45:40.810Z,35.23
2023-03-03T22:48:07.378Z,35.20
2023-03-03T22:50:39.302Z,38.90
2023-03-03T22:53:06.267Z,38.07
2023-03-03T22:55:36.768Z,36.80
2023-03-03T22:58:09.238Z,37.97
2023-03-03T23:00:38.060Z,38.20
2023-03-03T23:03:05.450Z,37.13
2023-03-03T23:05:32.034Z,38.77
2023-03-03T23:07:58.269Z,40.00
2023-03-03T23:10:24.891Z,40.17
2023-03-03T23:12:51.127Z,42.33
2023-03-03T23:15:17.871Z,34.60
2023-03-03T23:17:44.656Z,38.00
2023-03-03T23:20:12.408Z,35.13
2023-03-03T23:22:38.797Z,37.73
2023-03-03T23:25:05.350Z,38.10
2023-03-03T23:27:31.629Z,35.10
2023-03-03T23:29:57.852Z,36.83
2023-03-03T23:32:24.510Z,34.83
2023-03-03T23:34:51.434Z,39.00
2023-03-03T23:37:17.848Z,40.97
2023-03-03T23:39:44.094Z,36.20
2023-03-03T23:42:10.525Z,37.63
2023-03-03T23:44:37.735Z,37.50
2023-03-03T23:47:04.923Z,33.50
2023-03-03T23:49:31.248Z,39.17
2023-03-03T23:51:57.469Z,40.23
2023-03-03T23:54:23.693Z,37.10
2023-03-03T23:56:49.940Z,36.63
2023-03-03T23:59:16.182Z,37.73
